Time;durP1;ratioP1;P1;durP2;ratioP2;P2;SDS_P1;SDS_P2;PMS_P1;PMS_P2;Temp;Humidity;BMP_temperature;BMP_pressure;BME280_temperature;BME280_humidity;BME280_pressure;Samples;Min_cycle;Max_cycle;Signal;HPM_P1;HPM_P2
2021/04/15 00:01:15;;;;;;;;;;;18.10;40.20;;;;;;483178;246;1056;-44
2021/04/15 00:03:16;;;;;;;;;;;18.10;40.20;;;;;;483312;246;1119;-44
2021/04/15 00:05:17;;;;;;;;;;;18.10;40.30;;;;;;483657;246;1024;-44
2021/04/15 00:07:19;;;;;;;;;;;18.10;40.30;;;;;;483159;246;2184;-44
2021/04/15 00:09:20;;;;;;;;;;;18.10;40.30;;;;;;483201;246;1088;-44
2021/04/15 00:11:21;;;;;;;;;;;18.00;40.30;;;;;;483185;246;1096;-44
2021/04/15 00:13:23;;;;;;;;;;;18.00;40.30;;;;;;483531;246;1109;-44
2021/04/15 00:15:24;;;;;;;;;;;18.00;40.20;;;;;;483504;246;1048;-45
2021/04/15 00:17:25;;;;;;;;;;;18.00;40.30;;;;;;483216;246;1177;-44
2021/04/15 00:19:27;;;;;;;;;;;18.00;40.30;;;;;;483229;246;1249;-44
2021/04/15 00:21:28;;;;;;;;;;;18.00;40.30;;;;;;483184;246;1071;-44
2021/04/15 00:23:29;;;;;;;;;;;18.00;40.40;;;;;;483541;246;1293;-44
2021/04/15 00:25:30;;;;;;;;;;;18.00;40.40;;;;;;483382;246;1061;-44
2021/04/15 00:27:32;;;;;;;;;;;17.90;40.40;;;;;;483222;246;2196;-44
2021/04/15 00:29:33;;;;;;;;;;;17.90;40.50;;;;;;483602;246;1074;-44
2021/04/15 00:31:34;;;;;;;;;;;17.90;40.50;;;;;;483528;246;1041;-44
2021/04/15 00:33:35;;;;;;;;;;;17.80;40.40;;;;;;483166;246;1215;-44
2021/04/15 00:35:37;;;;;;;;;;;17.90;40.50;;;;;;483444;246;1100;-44
2021/04/15 00:37:38;;;;;;;;;;;17.80;40.50;;;;;;483255;246;1039;-44
2021/04/15 00:39:39;;;;;;;;;;;17.80;40.40;;;;;;483683;246;1085;-44
2021/04/15 00:41:41;;;;;;;;;;;17.80;40.50;;;;;;483661;246;1077;-44
2021/04/15 00:43:42;;;;;;;;;;;17.80;40.60;;;;;;483699;246;1032;-44
2021/04/15 00:45:43;;;;;;;;;;;17.80;40.60;;;;;;483207;246;1076;-44
2021/04/15 00:47:46;;;;;;;;;;;17.80;40.60;;;;;;483246;246;2168;-44
2021/04/15 00:49:46;;;;;;;;;;;17.90;40.30;;;;;;483594;246;1525;-44
2021/04/15 00:51:47;;;;;;;;;;;18.30;39.50;;;;;;483169;246;1066;-44
2021/04/15 00:53:48;;;;;;;;;;;18.70;38.60;;;;;;483419;246;1038;-44
2021/04/15 00:55:50;;;;;;;;;;;19.10;37.90;;;;;;483345;246;1055;-44
2021/04/15 00:57:51;;;;;;;;;;;19.30;37.50;;;;;;483598;246;1073;-45
2021/04/15 00:59:52;;;;;;;;;;;19.40;37.10;;;;;;483725;246;1090;-44
2021/04/15 01:01:54;;;;;;;;;;;19.60;36.90;;;;;;483215;246;952;-45
2021/04/15 01:03:55;;;;;;;;;;;19.70;36.60;;;;;;483250;246;1182;-45
2021/04/15 01:05:56;;;;;;;;;;;19.80;36.50;;;;;;483423;246;1062;-44
2021/04/15 01:07:58;;;;;;;;;;;19.80;36.30;;;;;;483241;246;2149;-45
2021/04/15 01:09:59;;;;;;;;;;;19.90;36.20;;;;;;483232;246;1048;-44
2021/04/15 01:12:00;;;;;;;;;;;19.90;36.10;;;;;;483356;246;1047;-45
2021/04/15 01:14:01;;;;;;;;;;;20.00;36.10;;;;;;483553;246;1066;-45
2021/04/15 01:16:03;;;;;;;;;;;20.00;36.00;;;;;;483338;246;1094;-44
2021/04/15 01:18:04;;;;;;;;;;;20.10;35.90;;;;;;483375;246;1099;-45
2021/04/15 01:20:05;;;;;;;;;;;20.10;35.80;;;;;;483306;246;1035;-44
2021/04/15 01:22:06;;;;;;;;;;;20.10;35.70;;;;;;483187;246;1057;-45
2021/04/15 01:24:08;;;;;;;;;;;20.20;35.70;;;;;;483521;246;1029;-45
2021/04/15 01:26:09;;;;;;;;;;;20.20;35.70;;;;;;483432;246;1349;-45
2021/04/15 01:28:10;;;;;;;;;;;20.20;35.50;;;;;;483234;246;2125;-44
2021/04/15 01:30:11;;;;;;;;;;;20.30;35.60;;;;;;483232;246;1064;-45
2021/04/15 01:32:13;;;;;;;;;;;20.30;35.50;;;;;;483419;246;1115;-44
2021/04/15 01:34:14;;;;;;;;;;;20.30;35.40;;;;;;483232;246;1175;-45
2021/04/15 01:36:15;;;;;;;;;;;20.40;35.50;;;;;;483441;246;1300;-45
2021/04/15 01:38:17;;;;;;;;;;;20.40;35.40;;;;;;483361;246;1088;-45
2021/04/15 01:40:18;;;;;;;;;;;20.40;35.40;;;;;;483338;246;1103;-44
2021/04/15 01:42:19;;;;;;;;;;;20.40;35.40;;;;;;483226;246;1153;-45
2021/04/15 01:44:20;;;;;;;;;;;20.40;35.30;;;;;;483198;246;1109;-44
2021/04/15 01:46:22;;;;;;;;;;;20.50;35.30;;;;;;483085;246;1409;-45
2021/04/15 01:48:23;;;;;;;;;;;20.50;35.20;;;;;;483420;246;2153;-45
2021/04/15 01:50:24;;;;;;;;;;;20.50;35.30;;;;;;483431;246;1259;-45
2021/04/15 01:52:26;;;;;;;;;;;20.50;35.20;;;;;;483188;246;968;-44
2021/04/15 01:54:27;;;;;;;;;;;20.50;35.20;;;;;;483328;246;1028;-45
2021/04/15 01:56:28;;;;;;;;;;;20.60;35.20;;;;;;483281;246;1279;-44
2021/04/15 01:58:29;;;;;;;;;;;20.60;35.10;;;;;;483370;246;1081;-45
2021/04/15 02:00:31;;;;;;;;;;;20.60;35.10;;;;;;483214;246;1621;-45
2021/04/15 02:02:32;;;;;;;;;;;20.60;35.10;;;;;;483279;246;1092;-44
2021/04/15 02:04:33;;;;;;;;;;;20.60;35.00;;;;;;483377;246;1103;-45
2021/04/15 02:06:35;;;;;;;;;;;20.70;35.00;;;;;;483275;246;1117;-44
2021/04/15 02:08:36;;;;;;;;;;;20.70;35.00;;;;;;483418;246;2145;-45
2021/04/15 02:10:37;;;;;;;;;;;20.70;34.90;;;;;;483442;246;1113;-45
2021/04/15 02:12:38;;;;;;;;;;;20.70;34.80;;;;;;483255;246;1623;-45
2021/04/15 02:14:40;;;;;;;;;;;20.80;34.80;;;;;;483313;246;1051;-45
2021/04/15 02:16:41;;;;;;;;;;;20.80;34.80;;;;;;483207;246;1078;-44
2021/04/15 02:18:43;;;;;;;;;;;20.80;34.80;;;;;;483249;246;1280;-45
2021/04/15 02:20:44;;;;;;;;;;;20.90;34.80;;;;;;483225;246;1035;-44
2021/04/15 02:22:46;;;;;;;;;;;20.80;34.80;;;;;;483329;246;1080;-45
2021/04/15 02:24:47;;;;;;;;;;;20.90;34.80;;;;;;483237;246;1058;-45
2021/04/15 02:26:48;;;;;;;;;;;20.90;34.70;;;;;;483242;246;1172;-45
2021/04/15 02:28:50;;;;;;;;;;;20.90;34.70;;;;;;483625;246;2153;-44
2021/04/15 02:30:51;;;;;;;;;;;20.90;34.70;;;;;;483407;246;1050;-45
2021/04/15 02:32:52;;;;;;;;;;;20.90;34.70;;;;;;483345;246;1109;-44
2021/04/15 02:34:53;;;;;;;;;;;20.90;34.70;;;;;;483396;246;1194;-45
2021/04/15 02:36:55;;;;;;;;;;;20.90;34.70;;;;;;483164;246;1078;-44
2021/04/15 02:38:56;;;;;;;;;;;20.90;34.60;;;;;;483213;246;1060;-45
2021/04/15 02:40:57;;;;;;;;;;;20.90;34.60;;;;;;483263;246;1059;-45
2021/04/15 02:42:59;;;;;;;;;;;20.90;34.60;;;;;;483389;246;1213;-45
2021/04/15 02:45:03;;;;;;;;;;;21.00;34.60;;;;;;483520;246;1187;-44
2021/04/15 02:47:01;;;;;;;;;;;21.00;34.60;;;;;;483080;246;1501;-44
2021/04/15 02:49:02;;;;;;;;;;;21.00;34.60;;;;;;483237;246;2192;-45
2021/04/15 02:51:04;;;;;;;;;;;21.00;34.60;;;;;;483296;246;1130;-44
2021/04/15 02:53:05;;;;;;;;;;;21.00;34.60;;;;;;483290;246;1178;-45
2021/04/15 02:55:06;;;;;;;;;;;21.00;34.50;;;;;;483358;246;1061;-45
2021/04/15 02:57:08;;;;;;;;;;;21.00;34.50;;;;;;483078;246;1268;-45
2021/04/15 02:59:09;;;;;;;;;;;21.00;34.50;;;;;;483273;246;1040;-45
2021/04/15 03:01:10;;;;;;;;;;;21.10;34.60;;;;;;483214;246;1416;-45
2021/04/15 03:03:11;;;;;;;;;;;21.00;34.50;;;;;;483304;246;1055;-45
2021/04/15 03:05:13;;;;;;;;;;;21.10;34.60;;;;;;483313;246;1188;-45
2021/04/15 03:07:14;;;;;;;;;;;21.00;34.50;;;;;;483208;246;1229;-45
2021/04/15 03:09:15;;;;;;;;;;;21.00;34.50;;;;;;483368;246;2196;-44
2021/04/15 03:11:16;;;;;;;;;;;21.10;34.50;;;;;;483164;246;1138;-45
2021/04/15 03:13:18;;;;;;;;;;;21.10;34.50;;;;;;483200;246;1128;-45
2021/04/15 03:15:19;;;;;;;;;;;21.10;34.50;;;;;;483230;246;1094;-45
2021/04/15 03:17:20;;;;;;;;;;;21.10;34.50;;;;;;483159;246;1042;-45
2021/04/15 03:19:22;;;;;;;;;;;21.10;34.50;;;;;;483179;246;1564;-44
2021/04/15 03:21:23;;;;;;;;;;;21.10;34.50;;;;;;483082;246;1595;-44
2021/04/15 03:23:24;;;;;;;;;;;21.10;34.50;;;;;;483174;246;1055;-45
2021/04/15 03:25:26;;;;;;;;;;;21.10;34.40;;;;;;483557;246;1133;-45
2021/04/15 03:27:27;;;;;;;;;;;21.10;34.40;;;;;;483241;246;1144;-45
2021/04/15 03:29:29;;;;;;;;;;;21.10;34.40;;;;;;483271;246;2184;-44
2021/04/15 03:31:30;;;;;;;;;;;21.20;34.50;;;;;;483461;246;1176;-45
2021/04/15 03:33:31;;;;;;;;;;;21.20;34.50;;;;;;483457;246;1034;-45
2021/04/15 03:35:32;;;;;;;;;;;21.20;34.50;;;;;;483322;246;1151;-44
2021/04/15 03:37:34;;;;;;;;;;;21.10;34.40;;;;;;483167;246;1144;-44
2021/04/15 03:39:35;;;;;;;;;;;21.20;34.40;;;;;;483239;246;1086;-45
2021/04/15 03:41:36;;;;;;;;;;;21.20;34.40;;;;;;483085;246;1162;-45
2021/04/15 03:43:38;;;;;;;;;;;21.20;34.40;;;;;;483184;246;1063;-45
2021/04/15 03:45:39;;;;;;;;;;;21.20;34.30;;;;;;483326;246;1039;-45
2021/04/15 03:47:40;;;;;;;;;;;21.30;34.30;;;;;;483210;246;1172;-45
2021/04/15 03:49:42;;;;;;;;;;;21.20;34.30;;;;;;483275;246;2136;-45
2021/04/15 03:51:43;;;;;;;;;;;21.20;34.30;;;;;;483295;246;1396;-44
2021/04/15 03:53:44;;;;;;;;;;;21.30;34.30;;;;;;483281;246;1059;-44
2021/04/15 03:55:46;;;;;;;;;;;21.20;34.30;;;;;;483279;246;1113;-45
2021/04/15 03:57:47;;;;;;;;;;;21.30;34.30;;;;;;483403;246;1287;-45
2021/04/15 03:59:48;;;;;;;;;;;21.30;34.30;;;;;;483269;246;1068;-45
2021/04/15 04:01:49;;;;;;;;;;;21.30;34.30;;;;;;483219;246;1045;-45
2021/04/15 04:03:51;;;;;;;;;;;21.30;34.30;;;;;;483439;246;1067;-44
2021/04/15 04:05:52;;;;;;;;;;;21.30;34.30;;;;;;483162;246;1148;-44
2021/04/15 04:07:53;;;;;;;;;;;21.30;34.30;;;;;;483322;246;1075;-45
2021/04/15 04:09:54;;;;;;;;;;;21.30;34.30;;;;;;483440;246;2177;-45
2021/04/15 04:11:56;;;;;;;;;;;21.30;34.30;;;;;;483119;246;1084;-45
2021/04/15 04:13:57;;;;;;;;;;;21.30;34.30;;;;;;483668;246;1143;-45
2021/04/15 04:15:58;;;;;;;;;;;21.30;34.20;;;;;;483249;246;1053;-45
2021/04/15 04:18:00;;;;;;;;;;;21.30;34.30;;;;;;483227;246;1040;-44
2021/04/15 04:20:01;;;;;;;;;;;21.30;34.30;;;;;;483529;246;1402;-45
2021/04/15 04:22:02;;;;;;;;;;;21.30;34.30;;;;;;483093;246;1106;-45
2021/04/15 04:24:03;;;;;;;;;;;21.30;34.20;;;;;;483237;246;1088;-45
2021/04/15 04:26:05;;;;;;;;;;;21.30;34.20;;;;;;483261;246;1088;-44
2021/04/15 04:28:06;;;;;;;;;;;21.30;34.20;;;;;;483154;246;1070;-45
2021/04/15 04:30:07;;;;;;;;;;;21.30;34.20;;;;;;483298;246;2195;-45
2021/04/15 04:32:09;;;;;;;;;;;21.30;34.20;;;;;;483257;246;1104;-45
2021/04/15 04:34:11;;;;;;;;;;;21.40;34.20;;;;;;483154;246;1060;-45
2021/04/15 04:36:12;;;;;;;;;;;21.30;34.20;;;;;;483064;246;1334;-45
2021/04/15 04:38:14;;;;;;;;;;;21.30;34.20;;;;;;483217;246;1069;-45
2021/04/15 04:40:15;;;;;;;;;;;21.30;34.20;;;;;;483133;246;1055;-44
2021/04/15 04:42:16;;;;;;;;;;;21.30;34.20;;;;;;483124;246;1510;-45
2021/04/15 04:44:18;;;;;;;;;;;21.30;34.20;;;;;;483099;246;1050;-45
2021/04/15 04:46:19;;;;;;;;;;;21.30;34.20;;;;;;482970;246;1385;-45
2021/04/15 04:48:20;;;;;;;;;;;21.30;34.30;;;;;;482675;246;1137;-45
2021/04/15 04:50:21;;;;;;;;;;;21.30;34.30;;;;;;483071;246;2197;-44
2021/04/15 04:52:23;;;;;;;;;;;21.40;34.30;;;;;;482910;246;1102;-45
2021/04/15 04:54:24;;;;;;;;;;;21.40;34.30;;;;;;483008;246;1047;-45
2021/04/15 04:56:25;;;;;;;;;;;21.30;34.20;;;;;;482942;246;1127;-44
2021/04/15 04:58:27;;;;;;;;;;;21.40;34.30;;;;;;482891;246;1062;-45
2021/04/15 05:00:28;;;;;;;;;;;21.30;34.20;;;;;;483040;246;1034;-45
2021/04/15 05:02:29;;;;;;;;;;;21.30;34.20;;;;;;482925;246;1168;-45
2021/04/15 05:04:30;;;;;;;;;;;21.40;34.30;;;;;;482975;246;1091;-45
2021/04/15 05:06:32;;;;;;;;;;;21.30;34.20;;;;;;482892;246;1139;-44
2021/04/15 05:08:33;;;;;;;;;;;21.40;34.30;;;;;;482864;246;1419;-45
2021/04/15 05:10:34;;;;;;;;;;;21.30;34.20;;;;;;483000;246;2113;-45
2021/04/15 05:12:35;;;;;;;;;;;21.30;34.20;;;;;;482928;246;1038;-45
2021/04/15 05:14:37;;;;;;;;;;;21.40;34.30;;;;;;482954;246;1164;-45
2021/04/15 05:16:38;;;;;;;;;;;21.40;34.20;;;;;;482878;246;1092;-45
2021/04/15 05:18:39;;;;;;;;;;;21.40;34.20;;;;;;482866;246;1069;-44
2021/04/15 05:20:41;;;;;;;;;;;21.40;34.20;;;;;;482851;246;1178;-45
2021/04/15 05:22:42;;;;;;;;;;;21.40;34.20;;;;;;482877;246;1199;-45
2021/04/15 05:24:43;;;;;;;;;;;21.40;34.20;;;;;;482986;246;1098;-45
2021/04/15 05:26:44;;;;;;;;;;;21.50;34.20;;;;;;482971;246;1099;-45
2021/04/15 05:28:46;;;;;;;;;;;21.40;34.10;;;;;;482998;246;2184;-45
2021/04/15 05:30:47;;;;;;;;;;;21.40;34.20;;;;;;483017;246;1100;-44
2021/04/15 05:32:48;;;;;;;;;;;21.50;34.20;;;;;;482979;246;1171;-45
2021/04/15 05:34:50;;;;;;;;;;;21.50;34.20;;;;;;482939;246;1120;-44
2021/04/15 05:36:51;;;;;;;;;;;21.50;34.10;;;;;;482833;246;1215;-45
2021/04/15 05:38:52;;;;;;;;;;;21.50;34.10;;;;;;483015;246;1159;-45
2021/04/15 05:40:54;;;;;;;;;;;21.50;34.10;;;;;;482916;246;1138;-44
2021/04/15 05:42:55;;;;;;;;;;;21.50;34.10;;;;;;482874;246;1072;-44
2021/04/15 05:44:57;;;;;;;;;;;21.50;34.10;;;;;;482908;246;1090;-44
2021/04/15 05:46:58;;;;;;;;;;;21.50;34.10;;;;;;482849;246;1081;-44
2021/04/15 05:48:59;;;;;;;;;;;21.50;34.10;;;;;;482883;246;2196;-45
2021/04/15 05:51:01;;;;;;;;;;;21.40;34.10;;;;;;482945;246;1217;-45
2021/04/15 05:53:02;;;;;;;;;;;21.50;34.10;;;;;;482848;246;2206;-45
2021/04/15 05:55:03;;;;;;;;;;;21.50;34.10;;;;;;482891;246;1076;-45
2021/04/15 05:57:05;;;;;;;;;;;21.50;34.10;;;;;;482844;246;1047;-45
2021/04/15 05:59:06;;;;;;;;;;;21.50;34.10;;;;;;482887;246;1029;-44
2021/04/15 06:01:07;;;;;;;;;;;21.50;34.00;;;;;;482963;246;1119;-44
2021/04/15 06:03:08;;;;;;;;;;;21.50;34.10;;;;;;482861;246;1096;-45
2021/04/15 06:05:10;;;;;;;;;;;21.50;34.10;;;;;;482907;246;1064;-45
2021/04/15 06:07:11;;;;;;;;;;;21.50;34.00;;;;;;482832;246;1178;-45
2021/04/15 06:09:12;;;;;;;;;;;21.50;34.10;;;;;;482984;246;2141;-45
2021/04/15 06:11:14;;;;;;;;;;;21.50;34.00;;;;;;482768;246;1085;-45
2021/04/15 06:13:15;;;;;;;;;;;21.60;34.00;;;;;;482779;246;1064;-45
2021/04/15 06:15:16;;;;;;;;;;;21.60;34.00;;;;;;482719;246;1147;-45
2021/04/15 06:17:18;;;;;;;;;;;21.60;34.10;;;;;;482636;246;1200;-44
2021/04/15 06:19:19;;;;;;;;;;;21.50;34.00;;;;;;482842;246;1057;-44
2021/04/15 06:21:20;;;;;;;;;;;21.60;34.10;;;;;;482679;246;1257;-45
2021/04/15 06:23:21;;;;;;;;;;;21.50;34.00;;;;;;482749;246;1055;-45
2021/04/15 06:25:23;;;;;;;;;;;21.60;34.10;;;;;;482788;246;1071;-45
2021/04/15 06:27:24;;;;;;;;;;;21.50;34.00;;;;;;482700;246;1219;-44
2021/04/15 06:29:25;;;;;;;;;;;21.50;34.00;;;;;;482767;246;2201;-45
2021/04/15 06:31:27;;;;;;;;;;;21.50;34.00;;;;;;482774;246;1397;-45
2021/04/15 06:33:28;;;;;;;;;;;21.50;34.10;;;;;;482770;246;1100;-44
2021/04/15 06:35:29;;;;;;;;;;;21.60;34.10;;;;;;482605;246;1124;-45
2021/04/15 06:37:30;;;;;;;;;;;21.50;34.00;;;;;;482690;246;1186;-45
2021/04/15 06:39:32;;;;;;;;;;;21.50;34.00;;;;;;482678;246;1134;-45
2021/04/15 06:41:33;;;;;;;;;;;21.60;34.10;;;;;;482515;246;1136;-45
2021/04/15 06:43:34;;;;;;;;;;;21.60;34.10;;;;;;482656;246;1233;-45
2021/04/15 06:45:36;;;;;;;;;;;21.60;34.00;;;;;;482709;246;1147;-45
2021/04/15 06:47:39;;;;;;;;;;;21.50;34.00;;;;;;482513;246;1258;-45
2021/04/15 06:49:38;;;;;;;;;;;21.60;34.00;;;;;;482508;247;2199;-45
2021/04/15 06:51:40;;;;;;;;;;;21.60;34.00;;;;;;482595;246;1174;-44
2021/04/15 06:53:41;;;;;;;;;;;21.60;34.00;;;;;;482565;246;1082;-45
2021/04/15 06:55:42;;;;;;;;;;;21.60;34.00;;;;;;482508;246;1185;-45
2021/04/15 06:57:43;;;;;;;;;;;21.60;34.00;;;;;;482463;246;1110;-45
2021/04/15 06:59:45;;;;;;;;;;;21.60;34.00;;;;;;482667;246;1161;-45
2021/04/15 07:01:46;;;;;;;;;;;21.60;33.90;;;;;;482522;246;1774;-44
2021/04/15 07:03:47;;;;;;;;;;;21.60;34.00;;;;;;482615;246;1153;-45
2021/04/15 07:05:55;;;;;;;;;;;21.60;33.90;;;;;;482502;246;1333;-45
2021/04/15 07:07:56;;;;;;;;;;;21.60;33.90;;;;;;482503;246;1186;-45
2021/04/15 07:09:57;;;;;;;;;;;21.60;34.00;;;;;;482502;246;2191;-44
2021/04/15 07:11:58;;;;;;;;;;;21.60;33.90;;;;;;482496;246;1390;-44
2021/04/15 07:14:00;;;;;;;;;;;21.60;33.90;;;;;;482585;246;1228;-45
2021/04/15 07:16:01;;;;;;;;;;;21.60;34.00;;;;;;482566;246;1228;-44
2021/04/15 07:18:04;;;;;;;;;;;21.60;33.90;;;;;;482528;246;1226;-44
2021/04/15 07:20:04;;;;;;;;;;;21.60;33.90;;;;;;482520;247;1360;-44
2021/04/15 07:22:05;;;;;;;;;;;21.60;34.00;;;;;;482365;246;1184;-44
2021/04/15 07:24:06;;;;;;;;;;;21.60;33.90;;;;;;482612;246;1099;-44
2021/04/15 07:26:08;;;;;;;;;;;21.60;33.90;;;;;;482663;246;1330;-45
2021/04/15 07:28:09;;;;;;;;;;;21.60;33.90;;;;;;482527;246;1219;-45
2021/04/15 07:30:11;;;;;;;;;;;21.60;33.90;;;;;;482484;246;2172;-44
2021/04/15 07:32:12;;;;;;;;;;;21.60;33.90;;;;;;482326;246;1198;-45
2021/04/15 07:34:13;;;;;;;;;;;21.60;33.90;;;;;;482608;246;1067;-45
2021/04/15 07:36:15;;;;;;;;;;;21.60;33.80;;;;;;482810;246;1202;-45
2021/04/15 07:38:16;;;;;;;;;;;21.60;33.90;;;;;;482535;246;1203;-45
2021/04/15 07:40:17;;;;;;;;;;;21.60;33.90;;;;;;482272;246;1108;-45
2021/04/15 07:42:18;;;;;;;;;;;21.60;33.80;;;;;;482198;246;1336;-45
2021/04/15 07:44:20;;;;;;;;;;;21.60;33.80;;;;;;482294;246;1097;-44
2021/04/15 07:46:21;;;;;;;;;;;21.60;33.80;;;;;;482169;246;1053;-45
2021/04/15 07:48:22;;;;;;;;;;;21.70;33.80;;;;;;482250;246;1138;-45
2021/04/15 07:50:24;;;;;;;;;;;21.60;33.70;;;;;;482462;246;2188;-44
2021/04/15 07:52:25;;;;;;;;;;;21.70;33.80;;;;;;482390;246;1357;-44
2021/04/15 07:54:26;;;;;;;;;;;21.70;33.80;;;;;;482580;246;1298;-45
2021/04/15 07:56:27;;;;;;;;;;;21.70;33.80;;;;;;482375;246;1343;-45
2021/04/15 07:58:29;;;;;;;;;;;21.70;33.80;;;;;;482793;246;1129;-45
2021/04/15 08:00:30;;;;;;;;;;;21.70;33.80;;;;;;482368;246;1187;-45
2021/04/15 08:02:32;;;;;;;;;;;21.70;33.70;;;;;;482343;246;1188;-45
2021/04/15 08:04:33;;;;;;;;;;;21.70;33.70;;;;;;482644;246;1161;-45
2021/04/15 08:06:34;;;;;;;;;;;21.70;33.70;;;;;;482409;246;1424;-44
2021/04/15 08:08:35;;;;;;;;;;;21.70;33.70;;;;;;482357;246;1204;-44
2021/04/15 08:10:37;;;;;;;;;;;21.80;33.70;;;;;;482392;246;2187;-45
2021/04/15 08:12:38;;;;;;;;;;;21.70;33.60;;;;;;481631;246;1169;-45
2021/04/15 08:14:39;;;;;;;;;;;21.80;33.70;;;;;;482535;246;1111;-45
2021/04/15 08:16:41;;;;;;;;;;;21.80;33.70;;;;;;482454;246;1290;-45
2021/04/15 08:18:42;;;;;;;;;;;21.80;33.70;;;;;;482529;246;1213;-45
2021/04/15 08:20:43;;;;;;;;;;;21.70;33.70;;;;;;482444;246;1274;-45
2021/04/15 08:22:44;;;;;;;;;;;21.70;33.70;;;;;;482515;246;1219;-45
2021/04/15 08:24:46;;;;;;;;;;;21.70;33.60;;;;;;482329;246;1295;-45
2021/04/15 08:26:47;;;;;;;;;;;21.70;33.70;;;;;;482002;246;1120;-44
2021/04/15 08:28:49;;;;;;;;;;;21.80;33.70;;;;;;482225;246;1173;-44
2021/04/15 08:30:50;;;;;;;;;;;21.80;33.70;;;;;;482378;246;2196;-44
2021/04/15 08:32:51;;;;;;;;;;;21.80;33.70;;;;;;482447;246;1172;-45
2021/04/15 08:34:53;;;;;;;;;;;21.80;33.70;;;;;;482441;246;1179;-45
2021/04/15 08:36:54;;;;;;;;;;;21.80;33.70;;;;;;482369;246;1125;-45
2021/04/15 08:38:55;;;;;;;;;;;21.80;33.60;;;;;;482543;246;1158;-45
2021/04/15 08:40:57;;;;;;;;;;;21.80;33.70;;;;;;482190;246;1076;-45
2021/04/15 08:42:58;;;;;;;;;;;21.80;33.60;;;;;;482348;246;1063;-45
2021/04/15 08:44:59;;;;;;;;;;;21.80;33.60;;;;;;482296;246;1063;-45
2021/04/15 08:47:01;;;;;;;;;;;21.80;33.60;;;;;;482222;246;1141;-45
2021/04/15 08:49:02;;;;;;;;;;;21.80;33.60;;;;;;482433;246;1097;-44
2021/04/15 08:51:03;;;;;;;;;;;21.80;33.60;;;;;;482458;246;2188;-45
2021/04/15 08:53:05;;;;;;;;;;;21.80;33.60;;;;;;482481;246;1495;-45
2021/04/15 08:55:06;;;;;;;;;;;21.80;33.60;;;;;;482441;246;1097;-45
2021/04/15 08:57:07;;;;;;;;;;;21.80;33.60;;;;;;482500;246;1201;-45
2021/04/15 08:59:08;;;;;;;;;;;21.80;33.60;;;;;;482820;246;1053;-45
2021/04/15 09:01:10;;;;;;;;;;;21.80;33.60;;;;;;482335;246;1157;-45
2021/04/15 09:03:11;;;;;;;;;;;21.80;33.50;;;;;;482701;246;1098;-45
2021/04/15 09:05:12;;;;;;;;;;;21.80;33.60;;;;;;482510;246;1095;-45
2021/04/15 09:07:14;;;;;;;;;;;21.80;33.60;;;;;;482582;246;1292;-45
2021/04/15 09:09:15;;;;;;;;;;;21.80;33.60;;;;;;482458;246;1184;-45
2021/04/15 09:11:16;;;;;;;;;;;21.80;33.60;;;;;;482518;246;2136;-45
2021/04/15 09:13:18;;;;;;;;;;;21.80;33.60;;;;;;482499;246;1144;-45
2021/04/15 09:15:19;;;;;;;;;;;21.80;33.60;;;;;;482348;246;1171;-45
2021/04/15 09:17:20;;;;;;;;;;;21.80;33.60;;;;;;482328;246;1329;-45
2021/04/15 09:19:21;;;;;;;;;;;21.90;33.60;;;;;;482553;246;1301;-45
2021/04/15 09:21:23;;;;;;;;;;;21.90;33.60;;;;;;482606;246;1222;-45
2021/04/15 09:23:26;;;;;;;;;;;21.80;33.50;;;;;;482489;246;1164;-45
2021/04/15 09:25:25;;;;;;;;;;;21.80;33.60;;;;;;482299;247;1913;-45
2021/04/15 09:27:27;;;;;;;;;;;21.90;33.50;;;;;;482347;246;1089;-45
2021/04/15 09:29:28;;;;;;;;;;;21.70;33.80;;;;;;482302;246;1261;-45
2021/04/15 09:31:29;;;;;;;;;;;21.10;34.80;;;;;;482326;246;2141;-44
2021/04/15 09:33:30;;;;;;;;;;;20.60;35.50;;;;;;482440;246;1106;-44
2021/04/15 09:35:32;;;;;;;;;;;20.30;36.20;;;;;;482555;246;1241;-44
2021/04/15 09:37:33;;;;;;;;;;;20.10;36.70;;;;;;482320;246;1110;-45
2021/04/15 09:39:35;;;;;;;;;;;19.90;37.00;;;;;;482350;246;1222;-45
2021/04/15 09:41:36;;;;;;;;;;;19.80;37.30;;;;;;482352;246;1392;-44
2021/04/15 09:43:37;;;;;;;;;;;19.70;37.40;;;;;;482454;246;1077;-44
2021/04/15 09:45:38;;;;;;;;;;;19.60;37.50;;;;;;482507;246;1294;-44
2021/04/15 09:47:40;;;;;;;;;;;19.60;37.60;;;;;;482280;246;1107;-44
2021/04/15 09:49:41;;;;;;;;;;;19.50;37.60;;;;;;482540;246;1112;-44
2021/04/15 09:51:43;;;;;;;;;;;19.50;37.80;;;;;;482539;246;2148;-44
2021/04/15 09:53:44;;;;;;;;;;;19.40;37.80;;;;;;482383;246;1135;-44
2021/04/15 09:55:45;;;;;;;;;;;19.40;37.90;;;;;;482605;246;1101;-44
2021/04/15 09:57:47;;;;;;;;;;;19.40;37.80;;;;;;482583;246;1135;-44
2021/04/15 09:59:48;;;;;;;;;;;19.40;37.90;;;;;;482590;246;1096;-44
2021/04/15 10:01:49;;;;;;;;;;;19.30;38.00;;;;;;482403;246;1385;-44
2021/04/15 10:03:50;;;;;;;;;;;19.30;38.10;;;;;;482445;246;1055;-44
2021/04/15 10:05:52;;;;;;;;;;;19.30;38.10;;;;;;482421;246;1103;-44
2021/04/15 10:07:53;;;;;;;;;;;19.20;38.10;;;;;;482645;246;1192;-43
2021/04/15 10:09:54;;;;;;;;;;;19.20;38.10;;;;;;482484;246;1480;-44
2021/04/15 10:11:55;;;;;;;;;;;19.20;38.20;;;;;;482446;246;2145;-44
2021/04/15 10:13:57;;;;;;;;;;;19.10;38.20;;;;;;482464;246;1098;-44
2021/04/15 10:15:58;;;;;;;;;;;19.10;38.20;;;;;;482357;246;1191;-44
2021/04/15 10:17:59;;;;;;;;;;;19.10;38.30;;;;;;482306;246;1130;-44
2021/04/15 10:20:01;;;;;;;;;;;19.10;38.40;;;;;;482335;246;1153;-44
2021/04/15 10:22:02;;;;;;;;;;;19.00;38.40;;;;;;482054;246;1215;-44
2021/04/15 10:24:03;;;;;;;;;;;19.00;38.50;;;;;;482330;246;1189;-44
2021/04/15 10:26:04;;;;;;;;;;;18.90;38.50;;;;;;482363;246;1242;-44
2021/04/15 10:28:06;;;;;;;;;;;18.90;38.60;;;;;;482463;246;1251;-44
2021/04/15 10:30:07;;;;;;;;;;;18.90;38.70;;;;;;482320;246;1372;-44
2021/04/15 10:32:08;;;;;;;;;;;18.80;38.70;;;;;;482249;246;2184;-43
2021/04/15 10:34:10;;;;;;;;;;;18.70;38.80;;;;;;482350;246;1144;-44
2021/04/15 10:36:11;;;;;;;;;;;18.70;38.80;;;;;;482440;246;1088;-44
2021/04/15 10:38:12;;;;;;;;;;;18.70;38.80;;;;;;482418;246;1107;-44
2021/04/15 10:40:13;;;;;;;;;;;18.60;38.90;;;;;;482378;246;1175;-44
2021/04/15 10:42:15;;;;;;;;;;;18.60;39.00;;;;;;482234;246;1215;-43
2021/04/15 10:44:16;;;;;;;;;;;18.60;39.00;;;;;;482298;246;1167;-44
2021/04/15 10:46:17;;;;;;;;;;;18.60;39.00;;;;;;482206;246;1111;-43
2021/04/15 10:48:19;;;;;;;;;;;18.60;39.00;;;;;;482242;246;1117;-44
2021/04/15 10:50:20;;;;;;;;;;;18.50;39.00;;;;;;482283;246;1436;-44
2021/04/15 10:52:21;;;;;;;;;;;18.50;39.00;;;;;;482173;246;2195;-44
2021/04/15 10:54:23;;;;;;;;;;;18.50;39.00;;;;;;481846;246;1310;-43
2021/04/15 10:56:24;;;;;;;;;;;18.50;39.10;;;;;;482486;246;2375;-44
2021/04/15 10:58:25;;;;;;;;;;;18.50;39.10;;;;;;482709;246;1479;-44
2021/04/15 11:00:26;;;;;;;;;;;18.50;39.10;;;;;;482508;246;1176;-44
2021/04/15 11:02:28;;;;;;;;;;;18.40;39.00;;;;;;482502;246;1235;-44
2021/04/15 11:04:29;;;;;;;;;;;18.40;39.10;;;;;;482544;246;1233;-44
2021/04/15 11:06:30;;;;;;;;;;;18.40;39.10;;;;;;482543;246;1164;-44
2021/04/15 11:08:32;;;;;;;;;;;18.50;39.00;;;;;;482550;246;1089;-44
2021/04/15 11:10:33;;;;;;;;;;;18.50;39.00;;;;;;482486;246;1213;-44
2021/04/15 11:12:34;;;;;;;;;;;18.50;39.00;;;;;;482573;246;2188;-43
2021/04/15 11:14:36;;;;;;;;;;;18.50;38.90;;;;;;482508;246;1227;-44
2021/04/15 11:16:37;;;;;;;;;;;18.40;38.90;;;;;;482597;246;1260;-44
2021/04/15 11:18:38;;;;;;;;;;;18.40;38.90;;;;;;482763;246;1055;-44
2021/04/15 11:20:41;;;;;;;;;;;18.50;38.90;;;;;;482635;246;1242;-44
2021/04/15 11:22:42;;;;;;;;;;;18.50;38.80;;;;;;482439;246;2097;-43
2021/04/15 11:24:43;;;;;;;;;;;18.50;38.80;;;;;;482488;246;1210;-44
2021/04/15 11:26:44;;;;;;;;;;;18.50;38.70;;;;;;482657;246;1272;-44
2021/04/15 11:28:52;;;;;;;;;;;18.50;38.70;;;;;;482878;246;1085;-44
2021/04/15 11:30:53;;;;;;;;;;;18.50;38.70;;;;;;482401;246;2133;-44
2021/04/15 11:32:54;;;;;;;;;;;18.60;38.60;;;;;;482590;246;1196;-44
2021/04/15 11:34:56;;;;;;;;;;;18.60;38.50;;;;;;482508;246;1118;-44
2021/04/15 11:36:57;;;;;;;;;;;18.60;38.50;;;;;;482344;246;1188;-44
2021/04/15 11:38:58;;;;;;;;;;;18.60;38.40;;;;;;482431;246;1404;-44
2021/04/15 11:41:00;;;;;;;;;;;18.60;38.30;;;;;;482398;246;1219;-44
2021/04/15 11:43:01;;;;;;;;;;;18.70;38.30;;;;;;482404;246;1176;-44
2021/04/15 11:45:02;;;;;;;;;;;18.70;38.20;;;;;;482365;246;1094;-44
2021/04/15 11:47:03;;;;;;;;;;;18.70;38.20;;;;;;482335;246;1225;-44
2021/04/15 11:49:05;;;;;;;;;;;18.80;38.10;;;;;;482416;246;1287;-44
2021/04/15 11:51:06;;;;;;;;;;;18.80;38.10;;;;;;482253;246;2191;-44
2021/04/15 11:53:07;;;;;;;;;;;18.80;38.00;;;;;;482216;246;1147;-44
2021/04/15 11:55:09;;;;;;;;;;;18.80;38.00;;;;;;482404;246;1312;-44
2021/04/15 11:57:10;;;;;;;;;;;18.80;38.00;;;;;;482389;246;1158;-44